sensor_id;sensor_type;location;lat;lon;timestamp;temperature;humidity
10149;DHT22;5115;50.920;6.376;2023-08-06T00:02:24;17.10;99.90
10149;DHT22;5115;50.920;6.376;2023-08-06T00:04:50;17.00;99.90
10149;DHT22;5115;50.920;6.376;2023-08-06T00:07:15;17.10;99.90
10149;DHT22;5115;50.920;6.376;2023-08-06T00:09:41;17.10;99.90
10149;DHT22;5115;50.920;6.376;2023-08-06T00:12:07;17.10;99.90
10149;DHT22;5115;50.920;6.376;2023-08-06T00:14:32;17.20;99.90
10149;DHT22;5115;50.920;6.376;2023-08-06T00:16:58;17.10;99.90
10149;DHT22;5115;50.920;6.376;2023-08-06T00:19:24;17.10;99.90
10149;DHT22;5115;50.920;6.376;2023-08-06T00:21:49;17.10;99.90
10149;DHT22;5115;50.920;6.376;2023-08-06T00:24:15;17.20;99.90
10149;DHT22;5115;50.920;6.376;2023-08-06T00:26:40;17.20;99.90
10149;DHT22;5115;50.920;6.376;2023-08-06T00:29:06;17.10;99.90
10149;DHT22;5115;50.920;6.376;2023-08-06T00:31:31;17.10;99.90
10149;DHT22;5115;50.920;6.376;2023-08-06T00:33:57;17.20;99.90
10149;DHT22;5115;50.920;6.376;2023-08-06T00:36:23;17.30;99.90
10149;DHT22;5115;50.920;6.376;2023-08-06T00:38:48;17.30;99.90
10149;DHT22;5115;50.920;6.376;2023-08-06T00:41:14;17.20;99.90
10149;DHT22;5115;50.920;6.376;2023-08-06T00:46:06;17.20;99.90
10149;DHT22;5115;50.920;6.376;2023-08-06T00:48:32;17.20;99.90
10149;DHT22;5115;50.920;6.376;2023-08-06T00:50:58;17.10;99.90
10149;DHT22;5115;50.920;6.376;2023-08-06T00:55:50;19.60;99.90
10149;DHT22;5115;50.920;6.376;2023-08-06T00:58:16;17.20;99.90
10149;DHT22;5115;50.920;6.376;2023-08-06T01:00:42;17.10;99.90
10149;DHT22;5115;50.920;6.376;2023-08-06T01:03:08;17.20;99.90
10149;DHT22;5115;50.920;6.376;2023-08-06T01:05:34;17.10;99.90
10149;DHT22;5115;50.920;6.376;2023-08-06T01:11:08;17.20;99.90
10149;DHT22;5115;50.920;6.376;2023-08-06T01:13:43;17.10;99.90
10149;DHT22;5115;50.920;6.376;2023-08-06T01:16:15;17.10;99.90
10149;DHT22;5115;50.920;6.376;2023-08-06T01:18:42;17.10;99.90
10149;DHT22;5115;50.920;6.376;2023-08-06T01:21:18;17.00;99.90
10149;DHT22;5115;50.920;6.376;2023-08-06T01:23:44;17.10;99.90
10149;DHT22;5115;50.920;6.376;2023-08-06T01:26:19;17.10;99.90
10149;DHT22;5115;50.920;6.376;2023-08-06T01:28:57;17.20;99.90
10149;DHT22;5115;50.920;6.376;2023-08-06T01:31:30;17.20;99.90
10149;DHT22;5115;50.920;6.376;2023-08-06T01:33:58;17.20;99.90
10149;DHT22;5115;50.920;6.376;2023-08-06T01:36:25;17.20;99.90
10149;DHT22;5115;50.920;6.376;2023-08-06T01:38:52;17.20;99.90
10149;DHT22;5115;50.920;6.376;2023-08-06T01:41:18;17.20;99.90
10149;DHT22;5115;50.920;6.376;2023-08-06T01:46:09;16.80;99.90
10149;DHT22;5115;50.920;6.376;2023-08-06T01:48:35;16.80;99.90
10149;DHT22;5115;50.920;6.376;2023-08-06T01:51:03;16.80;99.90
10149;DHT22;5115;50.920;6.376;2023-08-06T01:53:28;16.90;99.90
10149;DHT22;5115;50.920;6.376;2023-08-06T01:55:54;16.80;99.90
10149;DHT22;5115;50.920;6.376;2023-08-06T01:58:19;14.50;99.90
10149;DHT22;5115;50.920;6.376;2023-08-06T02:00:45;16.80;99.90
10149;DHT22;5115;50.920;6.376;2023-08-06T02:03:11;16.80;99.90
10149;DHT22;5115;50.920;6.376;2023-08-06T02:05:36;16.70;99.90
10149;DHT22;5115;50.920;6.376;2023-08-06T02:08:02;16.80;99.90
10149;DHT22;5115;50.920;6.376;2023-08-06T02:10:28;16.80;99.90
10149;DHT22;5115;50.920;6.376;2023-08-06T02:12:53;16.90;99.90
10149;DHT22;5115;50.920;6.376;2023-08-06T02:15:19;16.80;99.90
10149;DHT22;5115;50.920;6.376;2023-08-06T02:17:44;16.80;99.90
10149;DHT22;5115;50.920;6.376;2023-08-06T02:22:36;16.80;99.90
10149;DHT22;5115;50.920;6.376;2023-08-06T02:25:01;16.80;99.90
10149;DHT22;5115;50.920;6.376;2023-08-06T02:27:27;16.80;99.90
10149;DHT22;5115;50.920;6.376;2023-08-06T02:29:52;16.90;99.90
10149;DHT22;5115;50.920;6.376;2023-08-06T02:32:18;16.90;99.90
10149;DHT22;5115;50.920;6.376;2023-08-06T02:34:44;17.00;99.90
10149;DHT22;5115;50.920;6.376;2023-08-06T02:37:10;17.00;99.90
10149;DHT22;5115;50.920;6.376;2023-08-06T02:39:35;17.00;99.90
10149;DHT22;5115;50.920;6.376;2023-08-06T02:42:05;14.10;99.90
10149;DHT22;5115;50.920;6.376;2023-08-06T02:44:32;17.10;99.90
10149;DHT22;5115;50.920;6.376;2023-08-06T02:46:59;17.10;99.90
10149;DHT22;5115;50.920;6.376;2023-08-06T02:49:24;17.20;99.90
10149;DHT22;5115;50.920;6.376;2023-08-06T02:51:50;17.20;99.90
10149;DHT22;5115;50.920;6.376;2023-08-06T02:54:15;17.30;99.90
10149;DHT22;5115;50.920;6.376;2023-08-06T02:56:43;17.70;99.90
10149;DHT22;5115;50.920;6.376;2023-08-06T02:59:10;17.30;99.90
10149;DHT22;5115;50.920;6.376;2023-08-06T03:01:36;17.20;99.90
10149;DHT22;5115;50.920;6.376;2023-08-06T03:04:02;17.10;99.90
10149;DHT22;5115;50.920;6.376;2023-08-06T03:06:27;17.10;99.90
10149;DHT22;5115;50.920;6.376;2023-08-06T03:08:53;17.10;99.90
10149;DHT22;5115;50.920;6.376;2023-08-06T03:11:18;17.20;99.90
10149;DHT22;5115;50.920;6.376;2023-08-06T03:13:44;17.20;99.90
10149;DHT22;5115;50.920;6.376;2023-08-06T03:16:10;17.10;99.90
10149;DHT22;5115;50.920;6.376;2023-08-06T03:18:35;17.10;99.90
10149;DHT22;5115;50.920;6.376;2023-08-06T03:23:27;17.00;99.90
10149;DHT22;5115;50.920;6.376;2023-08-06T03:25:52;17.00;99.90
10149;DHT22;5115;50.920;6.376;2023-08-06T03:28:18;16.90;99.90
10149;DHT22;5115;50.920;6.376;2023-08-06T03:30:43;16.90;99.90
10149;DHT22;5115;50.920;6.376;2023-08-06T03:33:09;16.70;99.90
10149;DHT22;5115;50.920;6.376;2023-08-06T03:35:34;16.70;99.90
10149;DHT22;5115;50.920;6.376;2023-08-06T03:38:00;16.70;99.90
10149;DHT22;5115;50.920;6.376;2023-08-06T03:40:25;16.60;99.90
10149;DHT22;5115;50.920;6.376;2023-08-06T03:42:51;16.60;99.90
10149;DHT22;5115;50.920;6.376;2023-08-06T03:45:16;16.70;99.90
10149;DHT22;5115;50.920;6.376;2023-08-06T03:47:42;16.70;99.90
10149;DHT22;5115;50.920;6.376;2023-08-06T03:50:08;16.80;99.90
10149;DHT22;5115;50.920;6.376;2023-08-06T03:54:59;16.60;99.90
10149;DHT22;5115;50.920;6.376;2023-08-06T03:57:25;16.50;99.90
10149;DHT22;5115;50.920;6.376;2023-08-06T03:59:50;16.50;99.90
10149;DHT22;5115;50.920;6.376;2023-08-06T04:02:16;16.60;99.90
10149;DHT22;5115;50.920;6.376;2023-08-06T04:04:41;16.60;99.90
10149;DHT22;5115;50.920;6.376;2023-08-06T04:07:07;16.70;99.90
10149;DHT22;5115;50.920;6.376;2023-08-06T04:09:33;16.60;99.90
10149;DHT22;5115;50.920;6.376;2023-08-06T04:11:58;16.70;99.90
10149;DHT22;5115;50.920;6.376;2023-08-06T04:14:26;16.80;99.90
10149;DHT22;5115;50.920;6.376;2023-08-06T04:16:51;16.60;99.90
10149;DHT22;5115;50.920;6.376;2023-08-06T04:26:35;16.40;99.90
10149;DHT22;5115;50.920;6.376;2023-08-06T04:29:00;16.50;99.90
10149;DHT22;5115;50.920;6.376;2023-08-06T04:31:26;16.50;99.90
10149;DHT22;5115;50.920;6.376;2023-08-06T04:33:51;16.50;99.90
10149;DHT22;5115;50.920;6.376;2023-08-06T04:36:17;16.50;99.90
10149;DHT22;5115;50.920;6.376;2023-08-06T04:38:43;16.50;99.90
10149;DHT22;5115;50.920;6.376;2023-08-06T04:41:10;16.60;99.90
10149;DHT22;5115;50.920;6.376;2023-08-06T04:43:36;16.60;99.90
10149;DHT22;5115;50.920;6.376;2023-08-06T04:46:02;16.60;99.90
10149;DHT22;5115;50.920;6.376;2023-08-06T04:48:27;16.70;99.90
10149;DHT22;5115;50.920;6.376;2023-08-06T04:50:53;16.60;99.90
10149;DHT22;5115;50.920;6.376;2023-08-06T04:53:19;16.60;99.90
10149;DHT22;5115;50.920;6.376;2023-08-06T04:55:45;16.70;99.90
10149;DHT22;5115;50.920;6.376;2023-08-06T04:58:10;16.60;99.90
10149;DHT22;5115;50.920;6.376;2023-08-06T05:00:36;16.70;99.90
10149;DHT22;5115;50.920;6.376;2023-08-06T05:03:02;16.60;99.90
10149;DHT22;5115;50.920;6.376;2023-08-06T05:05:28;16.50;99.90
10149;DHT22;5115;50.920;6.376;2023-08-06T05:07:55;16.50;99.90
10149;DHT22;5115;50.920;6.376;2023-08-06T05:10:21;16.60;99.90
10149;DHT22;5115;50.920;6.376;2023-08-06T05:12:49;16.60;99.90
10149;DHT22;5115;50.920;6.376;2023-08-06T05:15:15;16.60;99.90
10149;DHT22;5115;50.920;6.376;2023-08-06T05:17:41;16.60;99.90
10149;DHT22;5115;50.920;6.376;2023-08-06T05:20:07;16.60;99.90
10149;DHT22;5115;50.920;6.376;2023-08-06T05:22:32;16.50;99.90
10149;DHT22;5115;50.920;6.376;2023-08-06T05:24:58;16.60;99.90
10149;DHT22;5115;50.920;6.376;2023-08-06T05:27:23;16.60;99.90
10149;DHT22;5115;50.920;6.376;2023-08-06T05:32:15;16.70;99.90
10149;DHT22;5115;50.920;6.376;2023-08-06T05:34:40;16.80;99.90
10149;DHT22;5115;50.920;6.376;2023-08-06T05:37:07;16.80;99.90
10149;DHT22;5115;50.920;6.376;2023-08-06T05:39:32;16.80;99.90
10149;DHT22;5115;50.920;6.376;2023-08-06T05:41:58;16.90;99.90
10149;DHT22;5115;50.920;6.376;2023-08-06T05:44:23;16.90;99.90
10149;DHT22;5115;50.920;6.376;2023-08-06T05:46:50;16.80;99.90
10149;DHT22;5115;50.920;6.376;2023-08-06T05:49:15;16.80;99.90
10149;DHT22;5115;50.920;6.376;2023-08-06T05:51:41;16.70;99.90
10149;DHT22;5115;50.920;6.376;2023-08-06T05:54:07;16.80;99.90
10149;DHT22;5115;50.920;6.376;2023-08-06T05:56:33;16.80;99.90
10149;DHT22;5115;50.920;6.376;2023-08-06T05:58:58;16.80;99.90
10149;DHT22;5115;50.920;6.376;2023-08-06T06:01:24;16.80;99.90
10149;DHT22;5115;50.920;6.376;2023-08-06T06:03:50;16.70;99.90
10149;DHT22;5115;50.920;6.376;2023-08-06T06:06:15;16.70;99.90
10149;DHT22;5115;50.920;6.376;2023-08-06T06:08:41;16.80;99.90
10149;DHT22;5115;50.920;6.376;2023-08-06T06:11:07;16.80;99.90
10149;DHT22;5115;50.920;6.376;2023-08-06T06:13:32;16.80;99.90
10149;DHT22;5115;50.920;6.376;2023-08-06T06:15:58;16.90;99.90
10149;DHT22;5115;50.920;6.376;2023-08-06T06:20:50;17.00;99.90
10149;DHT22;5115;50.920;6.376;2023-08-06T06:25:50;17.00;99.90
10149;DHT22;5115;50.920;6.376;2023-08-06T06:28:19;17.00;99.90
10149;DHT22;5115;50.920;6.376;2023-08-06T06:30:45;17.10;99.90
10149;DHT22;5115;50.920;6.376;2023-08-06T06:33:10;17.00;99.90
10149;DHT22;5115;50.920;6.376;2023-08-06T06:35:36;17.10;99.90
10149;DHT22;5115;50.920;6.376;2023-08-06T06:38:02;17.20;99.90
10149;DHT22;5115;50.920;6.376;2023-08-06T06:40:28;17.30;99.90
10149;DHT22;5115;50.920;6.376;2023-08-06T06:42:53;17.30;99.90
10149;DHT22;5115;50.920;6.376;2023-08-06T06:45:20;17.30;99.90
10149;DHT22;5115;50.920;6.376;2023-08-06T06:47:46;17.30;99.90
10149;DHT22;5115;50.920;6.376;2023-08-06T06:50:11;17.30;99.90
10149;DHT22;5115;50.920;6.376;2023-08-06T06:52:37;17.20;99.90
10149;DHT22;5115;50.920;6.376;2023-08-06T06:55:03;17.20;99.90
10149;DHT22;5115;50.920;6.376;2023-08-06T06:59:54;17.10;99.90
10149;DHT22;5115;50.920;6.376;2023-08-06T07:02:20;17.30;99.90
10149;DHT22;5115;50.920;6.376;2023-08-06T07:04:46;17.10;99.90
10149;DHT22;5115;50.920;6.376;2023-08-06T07:07:11;19.00;99.90
10149;DHT22;5115;50.920;6.376;2023-08-06T07:09:37;17.00;99.90
10149;DHT22;5115;50.920;6.376;2023-08-06T07:12:03;17.00;99.90
10149;DHT22;5115;50.920;6.376;2023-08-06T07:14:29;16.90;99.90
10149;DHT22;5115;50.920;6.376;2023-08-06T07:16:55;16.90;99.90
10149;DHT22;5115;50.920;6.376;2023-08-06T07:19:20;16.90;99.90
10149;DHT22;5115;50.920;6.376;2023-08-06T07:21:46;17.10;99.90
10149;DHT22;5115;50.920;6.376;2023-08-06T07:24:11;17.20;99.90
10149;DHT22;5115;50.920;6.376;2023-08-06T07:26:37;17.20;99.90
10149;DHT22;5115;50.920;6.376;2023-08-06T07:29:03;17.30;99.90
10149;DHT22;5115;50.920;6.376;2023-08-06T07:31:29;17.30;99.90
10149;DHT22;5115;50.920;6.376;2023-08-06T07:33:54;17.30;99.90
10149;DHT22;5115;50.920;6.376;2023-08-06T07:36:20;17.50;99.90
10149;DHT22;5115;50.920;6.376;2023-08-06T07:38:46;17.50;99.90
10149;DHT22;5115;50.920;6.376;2023-08-06T07:41:11;17.50;99.90
10149;DHT22;5115;50.920;6.376;2023-08-06T07:43:37;17.40;99.90
10149;DHT22;5115;50.920;6.376;2023-08-06T07:46:03;17.50;99.90
10149;DHT22;5115;50.920;6.376;2023-08-06T07:48:28;17.50;99.90
10149;DHT22;5115;50.920;6.376;2023-08-06T07:50:55;17.60;99.90
10149;DHT22;5115;50.920;6.376;2023-08-06T07:53:24;17.70;99.90
10149;DHT22;5115;50.920;6.376;2023-08-06T07:55:53;17.90;99.90
10149;DHT22;5115;50.920;6.376;2023-08-06T07:58:19;18.00;99.90
10149;DHT22;5115;50.920;6.376;2023-08-06T08:00:46;18.00;99.90
10149;DHT22;5115;50.920;6.376;2023-08-06T08:03:12;18.00;99.90
10149;DHT22;5115;50.920;6.376;2023-08-06T08:05:44;17.90;99.90
10149;DHT22;5115;50.920;6.376;2023-08-06T08:08:10;18.00;99.90
10149;DHT22;5115;50.920;6.376;2023-08-06T08:10:36;18.00;99.90
10149;DHT22;5115;50.920;6.376;2023-08-06T08:13:03;17.80;99.90
10149;DHT22;5115;50.920;6.376;2023-08-06T08:15:30;17.80;99.90
10149;DHT22;5115;50.920;6.376;2023-08-06T08:17:56;17.50;99.90
10149;DHT22;5115;50.920;6.376;2023-08-06T08:20:22;17.50;99.90
10149;DHT22;5115;50.920;6.376;2023-08-06T08:22:48;17.40;99.90
10149;DHT22;5115;50.920;6.376;2023-08-06T08:25:15;17.40;99.90
10149;DHT22;5115;50.920;6.376;2023-08-06T08:27:40;17.30;99.90
10149;DHT22;5115;50.920;6.376;2023-08-06T08:30:06;17.30;99.90
10149;DHT22;5115;50.920;6.376;2023-08-06T08:32:32;17.30;99.90
10149;DHT22;5115;50.920;6.376;2023-08-06T08:34:57;17.30;99.90
10149;DHT22;5115;50.920;6.376;2023-08-06T08:37:23;17.40;99.90
10149;DHT22;5115;50.920;6.376;2023-08-06T08:39:49;17.40;99.90
10149;DHT22;5115;50.920;6.376;2023-08-06T08:42:15;17.30;99.90
10149;DHT22;5115;50.920;6.376;2023-08-06T08:44:42;17.20;99.90
10149;DHT22;5115;50.920;6.376;2023-08-06T08:47:10;17.30;99.90
10149;DHT22;5115;50.920;6.376;2023-08-06T08:49:36;17.30;99.90
10149;DHT22;5115;50.920;6.376;2023-08-06T08:52:03;17.30;99.90
10149;DHT22;5115;50.920;6.376;2023-08-06T08:54:34;17.10;99.90
10149;DHT22;5115;50.920;6.376;2023-08-06T08:57:00;16.90;99.90
10149;DHT22;5115;50.920;6.376;2023-08-06T08:59:27;16.70;99.90
10149;DHT22;5115;50.920;6.376;2023-08-06T09:01:53;16.60;99.90
10149;DHT22;5115;50.920;6.376;2023-08-06T09:04:20;16.40;99.90
10149;DHT22;5115;50.920;6.376;2023-08-06T09:06:50;12.30;99.90
10149;DHT22;5115;50.920;6.376;2023-08-06T09:09:20;16.20;99.90
10149;DHT22;5115;50.920;6.376;2023-08-06T09:11:48;16.10;99.90
10149;DHT22;5115;50.920;6.376;2023-08-06T09:14:14;16.00;99.90
10149;DHT22;5115;50.920;6.376;2023-08-06T09:16:40;15.90;99.90
10149;DHT22;5115;50.920;6.376;2023-08-06T09:19:10;15.90;99.90
10149;DHT22;5115;50.920;6.376;2023-08-06T09:21:40;15.90;99.90
10149;DHT22;5115;50.920;6.376;2023-08-06T09:24:12;15.90;99.90
10149;DHT22;5115;50.920;6.376;2023-08-06T09:26:43;16.00;99.90
10149;DHT22;5115;50.920;6.376;2023-08-06T09:29:10;15.90;99.90
10149;DHT22;5115;50.920;6.376;2023-08-06T09:31:46;15.90;99.90
10149;DHT22;5115;50.920;6.376;2023-08-06T09:34:19;15.90;99.90
10149;DHT22;5115;50.920;6.376;2023-08-06T09:36:49;15.80;99.90
10149;DHT22;5115;50.920;6.376;2023-08-06T09:39:30;15.60;99.90
10149;DHT22;5115;50.920;6.376;2023-08-06T09:42:01;15.50;99.90
10149;DHT22;5115;50.920;6.376;2023-08-06T09:44:30;15.50;99.90
10149;DHT22;5115;50.920;6.376;2023-08-06T09:47:00;15.40;99.90
10149;DHT22;5115;50.920;6.376;2023-08-06T09:49:40;15.40;99.90
10149;DHT22;5115;50.920;6.376;2023-08-06T09:52:11;15.40;99.90
10149;DHT22;5115;50.920;6.376;2023-08-06T09:54:38;15.40;99.90
10149;DHT22;5115;50.920;6.376;2023-08-06T09:57:04;15.50;99.90
10149;DHT22;5115;50.920;6.376;2023-08-06T09:59:30;17.50;99.90
10149;DHT22;5115;50.920;6.376;2023-08-06T10:01:58;15.50;99.90
10149;DHT22;5115;50.920;6.376;2023-08-06T10:06:50;15.40;99.90
10149;DHT22;5115;50.920;6.376;2023-08-06T10:09:16;15.40;99.90
10149;DHT22;5115;50.920;6.376;2023-08-06T10:11:50;15.40;99.90
10149;DHT22;5115;50.920;6.376;2023-08-06T10:14:32;15.40;99.90
10149;DHT22;5115;50.920;6.376;2023-08-06T10:19:25;15.40;99.90
10149;DHT22;5115;50.920;6.376;2023-08-06T10:22:14;15.50;99.90
10149;DHT22;5115;50.920;6.376;2023-08-06T10:29:38;15.40;99.90
10149;DHT22;5115;50.920;6.376;2023-08-06T10:34:55;15.40;99.90
10149;DHT22;5115;50.920;6.376;2023-08-06T10:37:44;15.50;99.90
10149;DHT22;5115;50.920;6.376;2023-08-06T10:42:40;15.60;99.90
10149;DHT22;5115;50.920;6.376;2023-08-06T10:45:16;15.70;99.90
10149;DHT22;5115;50.920;6.376;2023-08-06T10:47:43;15.90;99.90
10149;DHT22;5115;50.920;6.376;2023-08-06T10:50:12;15.90;99.90
10149;DHT22;5115;50.920;6.376;2023-08-06T10:52:45;16.00;99.90
10149;DHT22;5115;50.920;6.376;2023-08-06T10:55:22;16.10;99.90
10149;DHT22;5115;50.920;6.376;2023-08-06T10:57:48;16.10;99.90
10149;DHT22;5115;50.920;6.376;2023-08-06T11:00:14;16.10;99.90
10149;DHT22;5115;50.920;6.376;2023-08-06T11:05:09;16.00;99.90
10149;DHT22;5115;50.920;6.376;2023-08-06T11:07:36;16.00;99.90
10149;DHT22;5115;50.920;6.376;2023-08-06T11:10:07;16.00;99.90
10149;DHT22;5115;50.920;6.376;2023-08-06T11:12:33;15.90;99.90
10149;DHT22;5115;50.920;6.376;2023-08-06T11:15:00;16.00;99.90
10149;DHT22;5115;50.920;6.376;2023-08-06T11:17:29;16.00;99.90
10149;DHT22;5115;50.920;6.376;2023-08-06T11:19:55;16.10;99.90
10149;DHT22;5115;50.920;6.376;2023-08-06T11:22:21;16.10;99.90
10149;DHT22;5115;50.920;6.376;2023-08-06T11:24:48;16.10;99.90
10149;DHT22;5115;50.920;6.376;2023-08-06T11:27:14;16.20;99.90
10149;DHT22;5115;50.920;6.376;2023-08-06T11:29:41;16.10;99.90
10149;DHT22;5115;50.920;6.376;2023-08-06T11:32:08;16.30;99.90
10149;DHT22;5115;50.920;6.376;2023-08-06T11:37:00;16.30;99.90
10149;DHT22;5115;50.920;6.376;2023-08-06T11:39:27;16.40;99.90
10149;DHT22;5115;50.920;6.376;2023-08-06T11:41:53;16.50;99.90
10149;DHT22;5115;50.920;6.376;2023-08-06T11:44:19;16.50;99.90
10149;DHT22;5115;50.920;6.376;2023-08-06T11:46:57;16.80;99.90
10149;DHT22;5115;50.920;6.376;2023-08-06T11:49:48;16.70;99.90
10149;DHT22;5115;50.920;6.376;2023-08-06T11:52:17;17.00;99.90
10149;DHT22;5115;50.920;6.376;2023-08-06T11:57:11;17.20;99.90
10149;DHT22;5115;50.920;6.376;2023-08-06T11:59:38;17.40;99.90
10149;DHT22;5115;50.920;6.376;2023-08-06T12:02:05;17.50;99.90
10149;DHT22;5115;50.920;6.376;2023-08-06T12:04:59;17.70;99.90
10149;DHT22;5115;50.920;6.376;2023-08-06T12:07:30;17.80;99.90
10149;DHT22;5115;50.920;6.376;2023-08-06T12:09:57;17.90;99.90
10149;DHT22;5115;50.920;6.376;2023-08-06T12:12:23;18.10;99.90
10149;DHT22;5115;50.920;6.376;2023-08-06T12:14:48;18.00;99.90
10149;DHT22;5115;50.920;6.376;2023-08-06T12:17:14;18.10;99.90
10149;DHT22;5115;50.920;6.376;2023-08-06T12:19:39;18.40;99.90
10149;DHT22;5115;50.920;6.376;2023-08-06T12:22:05;18.20;99.90
10149;DHT22;5115;50.920;6.376;2023-08-06T12:24:31;18.10;99.90
10149;DHT22;5115;50.920;6.376;2023-08-06T12:26:57;18.20;99.90
10149;DHT22;5115;50.920;6.376;2023-08-06T12:29:24;18.00;99.90
10149;DHT22;5115;50.920;6.376;2023-08-06T12:31:50;18.10;99.90
10149;DHT22;5115;50.920;6.376;2023-08-06T12:34:16;17.70;99.90
10149;DHT22;5115;50.920;6.376;2023-08-06T12:36:41;17.80;99.90
10149;DHT22;5115;50.920;6.376;2023-08-06T12:39:07;17.90;99.90
10149;DHT22;5115;50.920;6.376;2023-08-06T12:41:32;17.90;99.90
10149;DHT22;5115;50.920;6.376;2023-08-06T12:43:59;17.80;99.90
10149;DHT22;5115;50.920;6.376;2023-08-06T12:46:25;17.70;99.90
10149;DHT22;5115;50.920;6.376;2023-08-06T12:48:50;17.60;99.90
10149;DHT22;5115;50.920;6.376;2023-08-06T12:51:16;17.50;99.90
10149;DHT22;5115;50.920;6.376;2023-08-06T12:56:08;17.60;99.90
10149;DHT22;5115;50.920;6.376;2023-08-06T12:58:35;18.90;99.90
10149;DHT22;5115;50.920;6.376;2023-08-06T13:01:01;16.80;99.90
10149;DHT22;5115;50.920;6.376;2023-08-06T13:05:54;17.80;99.90
10149;DHT22;5115;50.920;6.376;2023-08-06T13:08:19;17.90;99.90
10149;DHT22;5115;50.920;6.376;2023-08-06T13:10:45;18.10;99.90
10149;DHT22;5115;50.920;6.376;2023-08-06T13:13:12;18.10;99.90
10149;DHT22;5115;50.920;6.376;2023-08-06T13:15:38;18.00;99.90
10149;DHT22;5115;50.920;6.376;2023-08-06T13:18:03;17.90;99.90
10149;DHT22;5115;50.920;6.376;2023-08-06T13:20:30;17.70;99.90
10149;DHT22;5115;50.920;6.376;2023-08-06T13:22:57;17.70;99.90
10149;DHT22;5115;50.920;6.376;2023-08-06T13:27:50;17.40;99.90
10149;DHT22;5115;50.920;6.376;2023-08-06T13:30:15;17.40;99.90
10149;DHT22;5115;50.920;6.376;2023-08-06T13:32:43;17.40;99.90
10149;DHT22;5115;50.920;6.376;2023-08-06T13:35:09;17.30;99.90
10149;DHT22;5115;50.920;6.376;2023-08-06T13:37:35;17.40;99.90
10149;DHT22;5115;50.920;6.376;2023-08-06T13:40:01;17.40;99.90
10149;DHT22;5115;50.920;6.376;2023-08-06T13:42:26;17.40;99.90
10149;DHT22;5115;50.920;6.376;2023-08-06T13:44:52;17.40;99.90
10149;DHT22;5115;50.920;6.376;2023-08-06T13:47:18;17.50;99.90
10149;DHT22;5115;50.920;6.376;2023-08-06T13:49:44;17.50;99.90
10149;DHT22;5115;50.920;6.376;2023-08-06T13:52:09;17.30;99.90
10149;DHT22;5115;50.920;6.376;2023-08-06T13:54:35;17.40;99.90
10149;DHT22;5115;50.920;6.376;2023-08-06T13:57:00;17.40;99.90
10149;DHT22;5115;50.920;6.376;2023-08-06T13:59:26;17.50;99.90
10149;DHT22;5115;50.920;6.376;2023-08-06T14:01:51;17.50;99.90
10149;DHT22;5115;50.920;6.376;2023-08-06T14:04:18;17.60;99.90
10149;DHT22;5115;50.920;6.376;2023-08-06T14:06:48;17.60;99.90
10149;DHT22;5115;50.920;6.376;2023-08-06T14:09:13;17.70;99.90
10149;DHT22;5115;50.920;6.376;2023-08-06T14:11:44;17.70;99.90
10149;DHT22;5115;50.920;6.376;2023-08-06T14:14:11;17.70;99.90
10149;DHT22;5115;50.920;6.376;2023-08-06T14:16:36;17.60;99.90
10149;DHT22;5115;50.920;6.376;2023-08-06T14:19:03;17.60;99.90
10149;DHT22;5115;50.920;6.376;2023-08-06T14:21:29;17.50;99.90
10149;DHT22;5115;50.920;6.376;2023-08-06T14:23:54;17.30;99.90
10149;DHT22;5115;50.920;6.376;2023-08-06T14:26:20;17.30;99.90
10149;DHT22;5115;50.920;6.376;2023-08-06T14:28:45;17.30;99.90
10149;DHT22;5115;50.920;6.376;2023-08-06T14:31:11;17.30;99.90
10149;DHT22;5115;50.920;6.376;2023-08-06T14:33:37;17.30;99.90
10149;DHT22;5115;50.920;6.376;2023-08-06T14:36:02;17.30;99.90
10149;DHT22;5115;50.920;6.376;2023-08-06T14:38:28;17.30;99.90
10149;DHT22;5115;50.920;6.376;2023-08-06T14:40:54;17.30;99.90
10149;DHT22;5115;50.920;6.376;2023-08-06T14:43:19;17.30;99.90
10149;DHT22;5115;50.920;6.376;2023-08-06T14:45:45;17.30;99.90
10149;DHT22;5115;50.920;6.376;2023-08-06T14:48:11;17.30;99.90
10149;DHT22;5115;50.920;6.376;2023-08-06T14:50:36;17.30;99.90
10149;DHT22;5115;50.920;6.376;2023-08-06T14:53:04;17.40;99.90
10149;DHT22;5115;50.920;6.376;2023-08-06T14:55:31;17.40;99.90
10149;DHT22;5115;50.920;6.376;2023-08-06T14:57:56;17.50;99.90
10149;DHT22;5115;50.920;6.376;2023-08-06T15:00:22;17.50;99.90
10149;DHT22;5115;50.920;6.376;2023-08-06T15:02:48;17.40;99.90
10149;DHT22;5115;50.920;6.376;2023-08-06T15:05:13;17.40;99.90
10149;DHT22;5115;50.920;6.376;2023-08-06T15:07:39;17.40;99.90
10149;DHT22;5115;50.920;6.376;2023-08-06T15:10:05;17.40;99.90
10149;DHT22;5115;50.920;6.376;2023-08-06T15:12:31;17.40;99.90
10149;DHT22;5115;50.920;6.376;2023-08-06T15:14:58;17.30;99.90
10149;DHT22;5115;50.920;6.376;2023-08-06T15:17:26;17.30;99.90
10149;DHT22;5115;50.920;6.376;2023-08-06T15:19:52;17.30;99.90
10149;DHT22;5115;50.920;6.376;2023-08-06T15:22:18;17.30;99.90
10149;DHT22;5115;50.920;6.376;2023-08-06T15:24:43;17.40;99.90
10149;DHT22;5115;50.920;6.376;2023-08-06T15:27:09;17.30;99.90
10149;DHT22;5115;50.920;6.376;2023-08-06T15:29:35;17.30;99.90
10149;DHT22;5115;50.920;6.376;2023-08-06T15:32:01;17.20;99.90
10149;DHT22;5115;50.920;6.376;2023-08-06T15:34:26;17.20;99.90
10149;DHT22;5115;50.920;6.376;2023-08-06T15:36:52;17.20;99.90
10149;DHT22;5115;50.920;6.376;2023-08-06T15:44:09;17.10;99.90
10149;DHT22;5115;50.920;6.376;2023-08-06T15:46:35;17.10;99.90
10149;DHT22;5115;50.920;6.376;2023-08-06T15:49:02;17.10;99.90
10149;DHT22;5115;50.920;6.376;2023-08-06T15:51:27;17.10;99.90
10149;DHT22;5115;50.920;6.376;2023-08-06T15:53:53;17.20;99.90
10149;DHT22;5115;50.920;6.376;2023-08-06T15:56:18;17.20;99.90
10149;DHT22;5115;50.920;6.376;2023-08-06T15:58:44;17.10;99.90
10149;DHT22;5115;50.920;6.376;2023-08-06T16:01:09;17.00;99.90
10149;DHT22;5115;50.920;6.376;2023-08-06T16:03:35;17.00;99.90
10149;DHT22;5115;50.920;6.376;2023-08-06T16:06:01;17.00;99.90
10149;DHT22;5115;50.920;6.376;2023-08-06T16:08:28;17.10;99.90
10149;DHT22;5115;50.920;6.376;2023-08-06T16:10:54;17.20;99.90
10149;DHT22;5115;50.920;6.376;2023-08-06T16:15:45;17.00;99.90
10149;DHT22;5115;50.920;6.376;2023-08-06T16:18:11;16.90;99.90
10149;DHT22;5115;50.920;6.376;2023-08-06T16:20:42;17.20;99.90
10149;DHT22;5115;50.920;6.376;2023-08-06T16:23:07;16.80;99.90
10149;DHT22;5115;50.920;6.376;2023-08-06T16:25:37;16.90;99.90
10149;DHT22;5115;50.920;6.376;2023-08-06T16:28:03;16.70;99.90
10149;DHT22;5115;50.920;6.376;2023-08-06T16:30:29;16.70;99.90
10149;DHT22;5115;50.920;6.376;2023-08-06T16:32:57;16.60;99.90
10149;DHT22;5115;50.920;6.376;2023-08-06T16:35:23;18.50;99.90
10149;DHT22;5115;50.920;6.376;2023-08-06T16:37:48;16.40;99.90
10149;DHT22;5115;50.920;6.376;2023-08-06T16:40:15;16.20;99.90
10149;DHT22;5115;50.920;6.376;2023-08-06T16:45:08;16.10;99.90
10149;DHT22;5115;50.920;6.376;2023-08-06T16:47:35;16.10;99.90
10149;DHT22;5115;50.920;6.376;2023-08-06T16:50:01;16.00;99.90
10149;DHT22;5115;50.920;6.376;2023-08-06T16:52:27;16.00;99.90
10149;DHT22;5115;50.920;6.376;2023-08-06T16:54:53;16.00;99.90
10149;DHT22;5115;50.920;6.376;2023-08-06T16:59:46;16.00;99.90